Isleton, California
Current Conditions -  °F | °C
As of 6:28 PM on Friday 19 Dec 2014 (Local Time) from KSUU Reporting Station
Haze Haze  
Wind Chill: 52°   Ceiling: 700
Heat Index: 52°   Visibility: 6mi
Dew Point: 50°   Wind: 3mph
Humidity: 94%   Direction: 50°NE
Pressure: 30.13"   Gusts: NA
Location:  38.16°N, 121.61°W
Report Text: KSUU 200228Z AUTO 05003KT 6SM R03L/5000FT BR OVC007 11/10 A3013 RMK AO2
Loading
Personal Weather Stations






























Interactive Weather Map New forecast layout! Learn more

10-Day Weather Forecast

Advertisements
Track Severe Weather on mobile